sensor_id;sensor_type;location;lat;lon;timestamp;temperature;humidity
25074;DHT22;13066;52.042;5.648;2022-10-18T00:00:55;16.40;99.90
25074;DHT22;13066;52.042;5.648;2022-10-18T00:03:24;16.40;99.90
25074;DHT22;13066;52.042;5.648;2022-10-18T00:05:52;16.40;99.90
25074;DHT22;13066;52.042;5.648;2022-10-18T00:08:20;16.40;99.90
25074;DHT22;13066;52.042;5.648;2022-10-18T00:10:49;16.30;99.90
25074;DHT22;13066;52.042;5.648;2022-10-18T00:13:18;16.40;99.90
25074;DHT22;13066;52.042;5.648;2022-10-18T00:15:51;16.40;99.90
25074;DHT22;13066;52.042;5.648;2022-10-18T00:18:19;16.40;99.90
25074;DHT22;13066;52.042;5.648;2022-10-18T00:20:56;16.30;99.90
25074;DHT22;13066;52.042;5.648;2022-10-18T00:23:25;16.40;99.90
25074;DHT22;13066;52.042;5.648;2022-10-18T00:26:02;16.30;99.90
25074;DHT22;13066;52.042;5.648;2022-10-18T00:28:31;16.30;99.90
25074;DHT22;13066;52.042;5.648;2022-10-18T00:31:11;16.30;99.90
25074;DHT22;13066;52.042;5.648;2022-10-18T00:33:40;16.40;99.90
25074;DHT22;13066;52.042;5.648;2022-10-18T00:36:09;16.30;99.90
25074;DHT22;13066;52.042;5.648;2022-10-18T00:38:38;16.30;99.90
25074;DHT22;13066;52.042;5.648;2022-10-18T00:41:10;16.40;99.90
25074;DHT22;13066;52.042;5.648;2022-10-18T00:43:54;16.40;99.90
25074;DHT22;13066;52.042;5.648;2022-10-18T00:46:24;16.40;99.90
25074;DHT22;13066;52.042;5.648;2022-10-18T00:48:52;16.40;99.90
25074;DHT22;13066;52.042;5.648;2022-10-18T00:51:22;16.40;99.90
25074;DHT22;13066;52.042;5.648;2022-10-18T00:53:52;16.40;99.90
25074;DHT22;13066;52.042;5.648;2022-10-18T00:56:22;16.40;99.90
25074;DHT22;13066;52.042;5.648;2022-10-18T00:58:50;16.40;99.90
25074;DHT22;13066;52.042;5.648;2022-10-18T01:01:18;16.40;99.90
25074;DHT22;13066;52.042;5.648;2022-10-18T01:03:53;16.40;99.90
25074;DHT22;13066;52.042;5.648;2022-10-18T01:06:22;16.40;99.90
25074;DHT22;13066;52.042;5.648;2022-10-18T01:08:59;16.40;99.90
25074;DHT22;13066;52.042;5.648;2022-10-18T01:11:54;16.40;99.90
25074;DHT22;13066;52.042;5.648;2022-10-18T01:14:33;16.40;99.90
25074;DHT22;13066;52.042;5.648;2022-10-18T01:17:07;16.40;99.90
25074;DHT22;13066;52.042;5.648;2022-10-18T01:22:47;16.40;99.90
25074;DHT22;13066;52.042;5.648;2022-10-18T01:25:39;16.40;99.90
25074;DHT22;13066;52.042;5.648;2022-10-18T01:28:24;16.40;99.90
25074;DHT22;13066;52.042;5.648;2022-10-18T01:30:56;16.40;99.90
25074;DHT22;13066;52.042;5.648;2022-10-18T01:33:30;16.40;99.90
25074;DHT22;13066;52.042;5.648;2022-10-18T01:36:04;16.40;99.90
25074;DHT22;13066;52.042;5.648;2022-10-18T01:38:33;16.30;99.90
25074;DHT22;13066;52.042;5.648;2022-10-18T01:41:04;16.40;99.90
25074;DHT22;13066;52.042;5.648;2022-10-18T01:43:42;16.30;99.90
25074;DHT22;13066;52.042;5.648;2022-10-18T01:46:13;16.30;99.90
25074;DHT22;13066;52.042;5.648;2022-10-18T01:48:44;16.30;99.90
25074;DHT22;13066;52.042;5.648;2022-10-18T01:51:13;16.30;99.90
25074;DHT22;13066;52.042;5.648;2022-10-18T01:53:41;16.30;99.90
25074;DHT22;13066;52.042;5.648;2022-10-18T01:56:26;16.30;99.90
25074;DHT22;13066;52.042;5.648;2022-10-18T01:59:15;16.30;99.90
25074;DHT22;13066;52.042;5.648;2022-10-18T02:01:53;16.30;99.90
25074;DHT22;13066;52.042;5.648;2022-10-18T02:04:30;16.30;99.90
25074;DHT22;13066;52.042;5.648;2022-10-18T02:07:06;16.30;99.90
25074;DHT22;13066;52.042;5.648;2022-10-18T02:09:44;16.30;99.90
25074;DHT22;13066;52.042;5.648;2022-10-18T02:12:16;16.20;99.90
25074;DHT22;13066;52.042;5.648;2022-10-18T02:14:47;16.20;99.90
25074;DHT22;13066;52.042;5.648;2022-10-18T02:17:18;16.20;99.90
25074;DHT22;13066;52.042;5.648;2022-10-18T02:19:50;16.20;99.90
25074;DHT22;13066;52.042;5.648;2022-10-18T02:22:21;16.20;99.90
25074;DHT22;13066;52.042;5.648;2022-10-18T02:24:53;16.20;99.90
25074;DHT22;13066;52.042;5.648;2022-10-18T02:27:22;16.20;99.90
25074;DHT22;13066;52.042;5.648;2022-10-18T02:29:50;16.20;99.90
25074;DHT22;13066;52.042;5.648;2022-10-18T02:32:27;16.20;99.90
25074;DHT22;13066;52.042;5.648;2022-10-18T02:34:59;16.20;99.90
25074;DHT22;13066;52.042;5.648;2022-10-18T02:37:32;16.20;99.90
25074;DHT22;13066;52.042;5.648;2022-10-18T02:40:03;16.10;99.90
25074;DHT22;13066;52.042;5.648;2022-10-18T02:42:33;16.10;99.90
25074;DHT22;13066;52.042;5.648;2022-10-18T02:45:02;16.10;99.90
25074;DHT22;13066;52.042;5.648;2022-10-18T02:47:32;16.10;99.90
25074;DHT22;13066;52.042;5.648;2022-10-18T02:50:00;16.10;99.90
25074;DHT22;13066;52.042;5.648;2022-10-18T02:52:28;16.10;99.90
25074;DHT22;13066;52.042;5.648;2022-10-18T02:54:56;16.10;99.90
25074;DHT22;13066;52.042;5.648;2022-10-18T02:57:24;16.10;99.90
25074;DHT22;13066;52.042;5.648;2022-10-18T02:59:52;16.10;99.90
25074;DHT22;13066;52.042;5.648;2022-10-18T03:02:21;16.10;99.90
25074;DHT22;13066;52.042;5.648;2022-10-18T03:04:50;16.00;99.90
25074;DHT22;13066;52.042;5.648;2022-10-18T03:07:18;16.00;99.90
25074;DHT22;13066;52.042;5.648;2022-10-18T03:09:46;16.00;99.90
25074;DHT22;13066;52.042;5.648;2022-10-18T03:12:15;16.00;99.90
25074;DHT22;13066;52.042;5.648;2022-10-18T03:14:43;16.10;99.90
25074;DHT22;13066;52.042;5.648;2022-10-18T03:17:11;16.10;99.90
25074;DHT22;13066;52.042;5.648;2022-10-18T03:19:39;16.10;99.90
25074;DHT22;13066;52.042;5.648;2022-10-18T03:22:08;16.10;99.90
25074;DHT22;13066;52.042;5.648;2022-10-18T03:24:36;16.00;99.90
25074;DHT22;13066;52.042;5.648;2022-10-18T03:27:04;16.00;99.90
25074;DHT22;13066;52.042;5.648;2022-10-18T03:29:32;16.00;99.90
25074;DHT22;13066;52.042;5.648;2022-10-18T03:32:00;16.00;99.90
25074;DHT22;13066;52.042;5.648;2022-10-18T03:34:28;16.00;99.90
25074;DHT22;13066;52.042;5.648;2022-10-18T03:36:56;16.00;99.90
25074;DHT22;13066;52.042;5.648;2022-10-18T03:39:31;16.00;99.90
25074;DHT22;13066;52.042;5.648;2022-10-18T03:41:59;16.00;99.90
25074;DHT22;13066;52.042;5.648;2022-10-18T03:44:27;16.00;99.90
25074;DHT22;13066;52.042;5.648;2022-10-18T03:46:55;16.00;99.90
25074;DHT22;13066;52.042;5.648;2022-10-18T03:49:23;16.00;99.90
25074;DHT22;13066;52.042;5.648;2022-10-18T03:51:52;15.90;99.90
25074;DHT22;13066;52.042;5.648;2022-10-18T03:54:20;15.90;99.90
25074;DHT22;13066;52.042;5.648;2022-10-18T03:56:49;15.90;99.90
25074;DHT22;13066;52.042;5.648;2022-10-18T03:59:17;15.90;99.90
25074;DHT22;13066;52.042;5.648;2022-10-18T04:01:45;15.90;99.90
25074;DHT22;13066;52.042;5.648;2022-10-18T04:04:14;15.90;99.90
25074;DHT22;13066;52.042;5.648;2022-10-18T04:06:42;15.80;99.90
25074;DHT22;13066;52.042;5.648;2022-10-18T04:09:10;15.80;99.90
25074;DHT22;13066;52.042;5.648;2022-10-18T04:11:38;15.80;99.90
25074;DHT22;13066;52.042;5.648;2022-10-18T04:14:07;15.80;99.90
25074;DHT22;13066;52.042;5.648;2022-10-18T04:16:35;15.80;99.90
25074;DHT22;13066;52.042;5.648;2022-10-18T04:19:03;15.70;99.90
25074;DHT22;13066;52.042;5.648;2022-10-18T04:21:31;15.70;99.90
25074;DHT22;13066;52.042;5.648;2022-10-18T04:23:59;15.70;99.90
25074;DHT22;13066;52.042;5.648;2022-10-18T04:26:27;15.70;99.90
25074;DHT22;13066;52.042;5.648;2022-10-18T04:28:55;15.70;99.90
25074;DHT22;13066;52.042;5.648;2022-10-18T04:31:25;15.70;99.90
25074;DHT22;13066;52.042;5.648;2022-10-18T04:33:53;15.70;99.90
25074;DHT22;13066;52.042;5.648;2022-10-18T04:36:21;15.70;99.90
25074;DHT22;13066;52.042;5.648;2022-10-18T04:38:49;15.60;99.90
25074;DHT22;13066;52.042;5.648;2022-10-18T04:41:17;15.60;99.90
25074;DHT22;13066;52.042;5.648;2022-10-18T04:43:45;15.60;99.90
25074;DHT22;13066;52.042;5.648;2022-10-18T04:46:13;15.60;99.90
25074;DHT22;13066;52.042;5.648;2022-10-18T04:48:42;15.60;99.90
25074;DHT22;13066;52.042;5.648;2022-10-18T04:51:10;15.50;99.90
25074;DHT22;13066;52.042;5.648;2022-10-18T04:53:38;15.50;99.90
25074;DHT22;13066;52.042;5.648;2022-10-18T04:56:07;15.50;99.90
25074;DHT22;13066;52.042;5.648;2022-10-18T04:58:35;15.50;99.90
25074;DHT22;13066;52.042;5.648;2022-10-18T05:01:04;15.50;99.90
25074;DHT22;13066;52.042;5.648;2022-10-18T05:03:32;15.50;99.90
25074;DHT22;13066;52.042;5.648;2022-10-18T05:06:01;15.40;99.90
25074;DHT22;13066;52.042;5.648;2022-10-18T05:08:30;15.50;99.90
25074;DHT22;13066;52.042;5.648;2022-10-18T05:10:59;15.40;99.90
25074;DHT22;13066;52.042;5.648;2022-10-18T05:13:28;15.40;99.90
25074;DHT22;13066;52.042;5.648;2022-10-18T05:15:56;15.40;99.90
25074;DHT22;13066;52.042;5.648;2022-10-18T05:18:25;15.40;99.90
25074;DHT22;13066;52.042;5.648;2022-10-18T05:20:53;15.40;99.90
25074;DHT22;13066;52.042;5.648;2022-10-18T05:23:23;15.40;99.90
25074;DHT22;13066;52.042;5.648;2022-10-18T05:25:51;15.40;99.90
25074;DHT22;13066;52.042;5.648;2022-10-18T05:28:19;15.40;99.90
25074;DHT22;13066;52.042;5.648;2022-10-18T05:31:09;15.30;99.90
25074;DHT22;13066;52.042;5.648;2022-10-18T05:33:38;15.30;99.90
25074;DHT22;13066;52.042;5.648;2022-10-18T05:36:06;15.40;99.90
25074;DHT22;13066;52.042;5.648;2022-10-18T05:38:38;15.30;99.90
25074;DHT22;13066;52.042;5.648;2022-10-18T05:41:09;15.30;99.90
25074;DHT22;13066;52.042;5.648;2022-10-18T05:43:37;15.30;99.90
25074;DHT22;13066;52.042;5.648;2022-10-18T05:46:05;15.30;99.90
25074;DHT22;13066;52.042;5.648;2022-10-18T05:48:41;15.20;99.90
25074;DHT22;13066;52.042;5.648;2022-10-18T05:51:09;15.20;99.90
25074;DHT22;13066;52.042;5.648;2022-10-18T05:53:39;15.20;99.90
25074;DHT22;13066;52.042;5.648;2022-10-18T05:56:08;15.30;99.90
25074;DHT22;13066;52.042;5.648;2022-10-18T05:58:38;15.30;99.90
25074;DHT22;13066;52.042;5.648;2022-10-18T06:01:07;15.30;99.90
25074;DHT22;13066;52.042;5.648;2022-10-18T06:03:35;15.30;99.90
25074;DHT22;13066;52.042;5.648;2022-10-18T06:06:06;15.20;99.90
25074;DHT22;13066;52.042;5.648;2022-10-18T06:08:35;15.20;99.90
25074;DHT22;13066;52.042;5.648;2022-10-18T06:11:10;15.20;99.90
25074;DHT22;13066;52.042;5.648;2022-10-18T06:13:38;15.20;99.90
25074;DHT22;13066;52.042;5.648;2022-10-18T06:16:07;15.20;99.90
25074;DHT22;13066;52.042;5.648;2022-10-18T06:18:35;15.10;99.90
25074;DHT22;13066;52.042;5.648;2022-10-18T06:21:04;15.10;99.90
25074;DHT22;13066;52.042;5.648;2022-10-18T06:23:32;15.10;99.90
25074;DHT22;13066;52.042;5.648;2022-10-18T06:26:03;15.10;99.90
25074;DHT22;13066;52.042;5.648;2022-10-18T06:28:33;15.10;99.90
25074;DHT22;13066;52.042;5.648;2022-10-18T06:31:02;15.00;99.90
25074;DHT22;13066;52.042;5.648;2022-10-18T06:33:30;15.00;99.90
25074;DHT22;13066;52.042;5.648;2022-10-18T06:36:00;15.00;99.90
25074;DHT22;13066;52.042;5.648;2022-10-18T06:38:29;15.00;99.90
25074;DHT22;13066;52.042;5.648;2022-10-18T06:40:58;15.00;99.90
25074;DHT22;13066;52.042;5.648;2022-10-18T06:43:27;15.00;99.90
25074;DHT22;13066;52.042;5.648;2022-10-18T06:45:56;14.90;99.90
25074;DHT22;13066;52.042;5.648;2022-10-18T06:48:24;14.90;99.90
25074;DHT22;13066;52.042;5.648;2022-10-18T06:50:53;14.90;99.90
25074;DHT22;13066;52.042;5.648;2022-10-18T06:53:23;14.90;99.90
25074;DHT22;13066;52.042;5.648;2022-10-18T06:55:51;14.90;99.90
25074;DHT22;13066;52.042;5.648;2022-10-18T06:58:19;14.90;99.90
25074;DHT22;13066;52.042;5.648;2022-10-18T07:00:47;14.90;99.90
25074;DHT22;13066;52.042;5.648;2022-10-18T07:03:17;14.90;99.90
25074;DHT22;13066;52.042;5.648;2022-10-18T07:05:46;14.90;99.90
25074;DHT22;13066;52.042;5.648;2022-10-18T07:08:14;14.80;99.90
25074;DHT22;13066;52.042;5.648;2022-10-18T07:10:49;14.80;99.90
25074;DHT22;13066;52.042;5.648;2022-10-18T07:13:18;14.80;99.90
25074;DHT22;13066;52.042;5.648;2022-10-18T07:16:03;14.80;99.90
25074;DHT22;13066;52.042;5.648;2022-10-18T07:18:33;14.80;99.90
25074;DHT22;13066;52.042;5.648;2022-10-18T07:21:03;14.80;99.90
25074;DHT22;13066;52.042;5.648;2022-10-18T07:23:32;14.80;99.90
25074;DHT22;13066;52.042;5.648;2022-10-18T07:26:01;14.80;99.90
25074;DHT22;13066;52.042;5.648;2022-10-18T07:28:29;14.80;99.90
25074;DHT22;13066;52.042;5.648;2022-10-18T07:31:03;14.80;99.90
25074;DHT22;13066;52.042;5.648;2022-10-18T07:33:33;14.90;99.90
25074;DHT22;13066;52.042;5.648;2022-10-18T07:36:02;14.80;99.90
25074;DHT22;13066;52.042;5.648;2022-10-18T07:38:30;14.80;99.90
25074;DHT22;13066;52.042;5.648;2022-10-18T07:40:59;14.80;99.90
25074;DHT22;13066;52.042;5.648;2022-10-18T07:43:28;14.80;99.90
25074;DHT22;13066;52.042;5.648;2022-10-18T07:45:58;14.90;99.90
25074;DHT22;13066;52.042;5.648;2022-10-18T07:48:27;14.90;99.90
25074;DHT22;13066;52.042;5.648;2022-10-18T07:50:58;14.90;99.90
25074;DHT22;13066;52.042;5.648;2022-10-18T07:53:27;14.90;99.90
25074;DHT22;13066;52.042;5.648;2022-10-18T07:55:58;14.90;99.90
25074;DHT22;13066;52.042;5.648;2022-10-18T07:58:30;14.90;99.90
25074;DHT22;13066;52.042;5.648;2022-10-18T08:01:00;14.90;99.90
25074;DHT22;13066;52.042;5.648;2022-10-18T08:03:29;14.90;99.90
25074;DHT22;13066;52.042;5.648;2022-10-18T08:05:58;14.90;99.90
25074;DHT22;13066;52.042;5.648;2022-10-18T08:08:27;14.90;99.90
25074;DHT22;13066;52.042;5.648;2022-10-18T08:11:01;14.90;99.90
25074;DHT22;13066;52.042;5.648;2022-10-18T08:13:29;15.00;99.90
25074;DHT22;13066;52.042;5.648;2022-10-18T08:16:01;15.00;99.90
25074;DHT22;13066;52.042;5.648;2022-10-18T08:18:30;15.00;99.90
25074;DHT22;13066;52.042;5.648;2022-10-18T08:21:00;15.00;99.90
25074;DHT22;13066;52.042;5.648;2022-10-18T08:23:29;15.10;99.90
25074;DHT22;13066;52.042;5.648;2022-10-18T08:25:59;15.10;99.90
25074;DHT22;13066;52.042;5.648;2022-10-18T08:28:28;15.10;99.90
25074;DHT22;13066;52.042;5.648;2022-10-18T08:30:56;15.10;99.90
25074;DHT22;13066;52.042;5.648;2022-10-18T08:33:24;15.10;99.90
25074;DHT22;13066;52.042;5.648;2022-10-18T08:35:55;15.10;99.90
25074;DHT22;13066;52.042;5.648;2022-10-18T08:38:25;15.10;99.90
25074;DHT22;13066;52.042;5.648;2022-10-18T08:40:53;15.10;99.90
25074;DHT22;13066;52.042;5.648;2022-10-18T08:43:25;15.10;99.90
25074;DHT22;13066;52.042;5.648;2022-10-18T08:45:56;15.10;99.90
25074;DHT22;13066;52.042;5.648;2022-10-18T08:48:31;15.20;99.90
25074;DHT22;13066;52.042;5.648;2022-10-18T08:51:03;15.20;99.90
25074;DHT22;13066;52.042;5.648;2022-10-18T08:53:42;15.30;99.90
25074;DHT22;13066;52.042;5.648;2022-10-18T08:56:15;15.30;99.90
25074;DHT22;13066;52.042;5.648;2022-10-18T08:58:47;15.40;99.90
25074;DHT22;13066;52.042;5.648;2022-10-18T09:01:24;15.40;99.90
25074;DHT22;13066;52.042;5.648;2022-10-18T09:04:04;15.40;99.90
25074;DHT22;13066;52.042;5.648;2022-10-18T09:06:44;15.40;99.90
25074;DHT22;13066;52.042;5.648;2022-10-18T09:09:27;15.40;99.90
25074;DHT22;13066;52.042;5.648;2022-10-18T09:12:12;15.40;99.90
25074;DHT22;13066;52.042;5.648;2022-10-18T09:15:03;15.40;99.90
25074;DHT22;13066;52.042;5.648;2022-10-18T09:17:43;15.40;99.90
25074;DHT22;13066;52.042;5.648;2022-10-18T09:20:21;15.40;99.90
25074;DHT22;13066;52.042;5.648;2022-10-18T09:22:55;15.40;99.90
25074;DHT22;13066;52.042;5.648;2022-10-18T09:25:28;15.50;99.90
25074;DHT22;13066;52.042;5.648;2022-10-18T09:28:13;15.50;99.90
25074;DHT22;13066;52.042;5.648;2022-10-18T09:30:47;15.50;99.90
25074;DHT22;13066;52.042;5.648;2022-10-18T09:33:27;15.50;99.90
25074;DHT22;13066;52.042;5.648;2022-10-18T09:35:59;15.50;99.90
25074;DHT22;13066;52.042;5.648;2022-10-18T09:38:30;15.60;99.90
25074;DHT22;13066;52.042;5.648;2022-10-18T09:41:03;15.60;99.90
25074;DHT22;13066;52.042;5.648;2022-10-18T09:43:41;15.60;99.90
25074;DHT22;13066;52.042;5.648;2022-10-18T09:46:12;15.70;99.90
25074;DHT22;13066;52.042;5.648;2022-10-18T09:48:44;15.70;99.90
25074;DHT22;13066;52.042;5.648;2022-10-18T09:51:15;15.70;99.90
25074;DHT22;13066;52.042;5.648;2022-10-18T09:54:13;15.70;99.90
25074;DHT22;13066;52.042;5.648;2022-10-18T09:56:47;15.70;99.90
25074;DHT22;13066;52.042;5.648;2022-10-18T09:59:35;15.80;99.90
25074;DHT22;13066;52.042;5.648;2022-10-18T10:02:05;15.80;99.90
25074;DHT22;13066;52.042;5.648;2022-10-18T10:04:33;15.80;99.90
25074;DHT22;13066;52.042;5.648;2022-10-18T10:07:01;15.90;99.90
25074;DHT22;13066;52.042;5.648;2022-10-18T10:09:39;15.90;99.90
25074;DHT22;13066;52.042;5.648;2022-10-18T10:12:26;15.90;99.90
25074;DHT22;13066;52.042;5.648;2022-10-18T10:15:06;16.00;99.90
25074;DHT22;13066;52.042;5.648;2022-10-18T10:17:35;16.00;99.90
25074;DHT22;13066;52.042;5.648;2022-10-18T10:20:13;16.00;99.90
25074;DHT22;13066;52.042;5.648;2022-10-18T10:22:44;16.00;99.90
25074;DHT22;13066;52.042;5.648;2022-10-18T10:25:22;16.10;99.90
25074;DHT22;13066;52.042;5.648;2022-10-18T10:27:53;16.10;99.90
25074;DHT22;13066;52.042;5.648;2022-10-18T10:30:24;16.10;99.90
25074;DHT22;13066;52.042;5.648;2022-10-18T10:32:53;16.20;99.90
25074;DHT22;13066;52.042;5.648;2022-10-18T10:35:27;16.20;99.90
25074;DHT22;13066;52.042;5.648;2022-10-18T10:38:22;16.20;99.90
25074;DHT22;13066;52.042;5.648;2022-10-18T10:40:51;16.30;99.90
25074;DHT22;13066;52.042;5.648;2022-10-18T10:43:22;16.40;99.90
25074;DHT22;13066;52.042;5.648;2022-10-18T10:46:06;16.40;99.90
25074;DHT22;13066;52.042;5.648;2022-10-18T10:48:44;16.40;99.90
25074;DHT22;13066;52.042;5.648;2022-10-18T10:51:16;16.50;99.90
25074;DHT22;13066;52.042;5.648;2022-10-18T10:53:55;16.50;99.90
25074;DHT22;13066;52.042;5.648;2022-10-18T10:56:26;16.60;99.90
25074;DHT22;13066;52.042;5.648;2022-10-18T10:59:04;16.60;99.90
25074;DHT22;13066;52.042;5.648;2022-10-18T11:01:33;16.60;99.90
25074;DHT22;13066;52.042;5.648;2022-10-18T11:04:23;16.70;99.90
25074;DHT22;13066;52.042;5.648;2022-10-18T11:06:59;16.70;99.90
25074;DHT22;13066;52.042;5.648;2022-10-18T11:09:36;16.70;99.90
25074;DHT22;13066;52.042;5.648;2022-10-18T11:12:19;16.70;99.90
25074;DHT22;13066;52.042;5.648;2022-10-18T11:14:56;16.80;99.90
25074;DHT22;13066;52.042;5.648;2022-10-18T11:17:31;16.80;99.90
25074;DHT22;13066;52.042;5.648;2022-10-18T11:22:58;16.90;99.90
25074;DHT22;13066;52.042;5.648;2022-10-18T11:25:39;16.90;99.90
25074;DHT22;13066;52.042;5.648;2022-10-18T11:28:17;17.00;99.90
25074;DHT22;13066;52.042;5.648;2022-10-18T11:31:03;17.00;99.90
25074;DHT22;13066;52.042;5.648;2022-10-18T11:33:44;17.00;99.90
25074;DHT22;13066;52.042;5.648;2022-10-18T11:36:39;17.00;99.90
25074;DHT22;13066;52.042;5.648;2022-10-18T11:39:36;17.10;99.90
25074;DHT22;13066;52.042;5.648;2022-10-18T11:42:10;17.10;99.90
25074;DHT22;13066;52.042;5.648;2022-10-18T11:44:47;17.10;99.90
25074;DHT22;13066;52.042;5.648;2022-10-18T11:47:24;17.10;99.90
25074;DHT22;13066;52.042;5.648;2022-10-18T11:50:05;17.20;99.90
25074;DHT22;13066;52.042;5.648;2022-10-18T11:52:41;17.20;99.90
25074;DHT22;13066;52.042;5.648;2022-10-18T11:55:23;17.20;99.90
25074;DHT22;13066;52.042;5.648;2022-10-18T11:58:05;17.30;99.90
25074;DHT22;13066;52.042;5.648;2022-10-18T12:00:44;17.30;99.90
25074;DHT22;13066;52.042;5.648;2022-10-18T12:03:31;17.40;99.90
25074;DHT22;13066;52.042;5.648;2022-10-18T12:06:03;17.40;99.60
25074;DHT22;13066;52.042;5.648;2022-10-18T12:08:35;17.40;99.40
25074;DHT22;13066;52.042;5.648;2022-10-18T12:11:08;17.50;98.90
25074;DHT22;13066;52.042;5.648;2022-10-18T12:13:45;17.50;98.60
25074;DHT22;13066;52.042;5.648;2022-10-18T12:16:14;17.50;98.80
25074;DHT22;13066;52.042;5.648;2022-10-18T12:18:55;17.50;99.00
25074;DHT22;13066;52.042;5.648;2022-10-18T12:21:27;17.50;99.10
25074;DHT22;13066;52.042;5.648;2022-10-18T12:23:58;17.50;98.70
25074;DHT22;13066;52.042;5.648;2022-10-18T12:26:28;17.50;98.20
25074;DHT22;13066;52.042;5.648;2022-10-18T12:29:05;17.60;97.30
25074;DHT22;13066;52.042;5.648;2022-10-18T12:31:39;17.60;97.10
25074;DHT22;13066;52.042;5.648;2022-10-18T12:34:29;17.60;96.80
25074;DHT22;13066;52.042;5.648;2022-10-18T12:37:36;17.70;96.70
25074;DHT22;13066;52.042;5.648;2022-10-18T12:40:13;17.70;96.50
25074;DHT22;13066;52.042;5.648;2022-10-18T12:42:47;17.70;96.70
25074;DHT22;13066;52.042;5.648;2022-10-18T12:45:34;17.80;96.20
25074;DHT22;13066;52.042;5.648;2022-10-18T12:48:05;17.80;96.10
25074;DHT22;13066;52.042;5.648;2022-10-18T12:50:37;17.80;94.70
25074;DHT22;13066;52.042;5.648;2022-10-18T12:53:18;17.80;93.90
25074;DHT22;13066;52.042;5.648;2022-10-18T12:55:51;17.80;93.60
25074;DHT22;13066;52.042;5.648;2022-10-18T12:58:26;17.80;93.80
25074;DHT22;13066;52.042;5.648;2022-10-18T13:01:02;17.90;93.80
25074;DHT22;13066;52.042;5.648;2022-10-18T13:07:16;17.90;94.20
25074;DHT22;13066;52.042;5.648;2022-10-18T13:12:58;17.90;94.60
25074;DHT22;13066;52.042;5.648;2022-10-18T13:15:55;17.90;94.40
25074;DHT22;13066;52.042;5.648;2022-10-18T13:18:32;17.90;94.30
25074;DHT22;13066;52.042;5.648;2022-10-18T13:21:11;17.90;94.40
25074;DHT22;13066;52.042;5.648;2022-10-18T13:24:00;17.90;94.60
25074;DHT22;13066;52.042;5.648;2022-10-18T13:26:37;18.00;94.70
25074;DHT22;13066;52.042;5.648;2022-10-18T13:29:25;18.00;94.50
25074;DHT22;13066;52.042;5.648;2022-10-18T13:31:59;18.00;93.10
25074;DHT22;13066;52.042;5.648;2022-10-18T13:34:31;18.00;92.90
25074;DHT22;13066;52.042;5.648;2022-10-18T13:37:02;18.00;93.10
25074;DHT22;13066;52.042;5.648;2022-10-18T13:39:32;18.00;93.20
25074;DHT22;13066;52.042;5.648;2022-10-18T13:42:27;18.00;93.20
25074;DHT22;13066;52.042;5.648;2022-10-18T13:48:46;18.10;92.90
25074;DHT22;13066;52.042;5.648;2022-10-18T13:51:48;18.00;93.30
25074;DHT22;13066;52.042;5.648;2022-10-18T13:54:34;18.00;93.30
25074;DHT22;13066;52.042;5.648;2022-10-18T13:57:12;18.00;93.30
25074;DHT22;13066;52.042;5.648;2022-10-18T14:00:01;18.00;93.20
25074;DHT22;13066;52.042;5.648;2022-10-18T14:02:45;18.00;92.70
25074;DHT22;13066;52.042;5.648;2022-10-18T14:05:41;18.00;92.80
25074;DHT22;13066;52.042;5.648;2022-10-18T14:08:16;18.00;92.70
25074;DHT22;13066;52.042;5.648;2022-10-18T14:10:54;18.00;92.60
25074;DHT22;13066;52.042;5.648;2022-10-18T14:13:33;18.00;92.20
25074;DHT22;13066;52.042;5.648;2022-10-18T14:16:07;18.00;91.90
25074;DHT22;13066;52.042;5.648;2022-10-18T14:18:37;18.00;91.80
25074;DHT22;13066;52.042;5.648;2022-10-18T14:21:11;17.90;92.00
25074;DHT22;13066;52.042;5.648;2022-10-18T14:23:47;17.80;92.40
25074;DHT22;13066;52.042;5.648;2022-10-18T14:26:19;17.80;92.60
25074;DHT22;13066;52.042;5.648;2022-10-18T14:29:01;17.90;93.00
25074;DHT22;13066;52.042;5.648;2022-10-18T14:31:30;17.90;93.30
25074;DHT22;13066;52.042;5.648;2022-10-18T14:33:58;18.00;93.40
25074;DHT22;13066;52.042;5.648;2022-10-18T14:36:30;18.00;93.40
25074;DHT22;13066;52.042;5.648;2022-10-18T14:39:03;18.00;94.30
25074;DHT22;13066;52.042;5.648;2022-10-18T14:41:33;18.00;94.30
25074;DHT22;13066;52.042;5.648;2022-10-18T14:44:16;18.10;94.10
25074;DHT22;13066;52.042;5.648;2022-10-18T14:46:47;18.10;93.50
25074;DHT22;13066;52.042;5.648;2022-10-18T14:49:16;18.10;93.40
25074;DHT22;13066;52.042;5.648;2022-10-18T14:51:47;18.10;93.20
25074;DHT22;13066;52.042;5.648;2022-10-18T14:54:19;18.10;93.20
25074;DHT22;13066;52.042;5.648;2022-10-18T14:56:53;18.10;93.40
25074;DHT22;13066;52.042;5.648;2022-10-18T14:59:23;18.10;93.50
25074;DHT22;13066;52.042;5.648;2022-10-18T15:01:57;18.10;93.90
25074;DHT22;13066;52.042;5.648;2022-10-18T15:04:27;18.10;94.60
25074;DHT22;13066;52.042;5.648;2022-10-18T15:06:59;18.10;95.10
25074;DHT22;13066;52.042;5.648;2022-10-18T15:09:29;18.10;95.60
25074;DHT22;13066;52.042;5.648;2022-10-18T15:12:00;18.10;95.80
25074;DHT22;13066;52.042;5.648;2022-10-18T15:14:29;18.00;95.80
25074;DHT22;13066;52.042;5.648;2022-10-18T15:17:00;18.00;95.60
25074;DHT22;13066;52.042;5.648;2022-10-18T15:19:32;18.00;95.70
25074;DHT22;13066;52.042;5.648;2022-10-18T15:22:01;18.00;95.60
25074;DHT22;13066;52.042;5.648;2022-10-18T15:25:13;18.00;95.60
25074;DHT22;13066;52.042;5.648;2022-10-18T15:27:45;18.00;95.80
25074;DHT22;13066;52.042;5.648;2022-10-18T15:30:17;18.00;95.80
25074;DHT22;13066;52.042;5.648;2022-10-18T15:32:48;18.00;96.00
25074;DHT22;13066;52.042;5.648;2022-10-18T15:35:20;18.00;96.20
25074;DHT22;13066;52.042;5.648;2022-10-18T15:37:53;18.00;96.50
25074;DHT22;13066;52.042;5.648;2022-10-18T15:40:38;18.00;96.60
25074;DHT22;13066;52.042;5.648;2022-10-18T15:43:34;18.10;96.80
25074;DHT22;13066;52.042;5.648;2022-10-18T15:46:04;18.00;97.00
25074;DHT22;13066;52.042;5.648;2022-10-18T15:48:35;18.00;97.10
25074;DHT22;13066;52.042;5.648;2022-10-18T15:51:04;17.90;97.10
25074;DHT22;13066;52.042;5.648;2022-10-18T15:53:50;17.90;97.20
25074;DHT22;13066;52.042;5.648;2022-10-18T15:56:30;17.90;97.20
25074;DHT22;13066;52.042;5.648;2022-10-18T15:59:02;17.80;97.20
25074;DHT22;13066;52.042;5.648;2022-10-18T16:01:34;17.70;97.20
25074;DHT22;13066;52.042;5.648;2022-10-18T16:04:09;17.60;97.20
25074;DHT22;13066;52.042;5.648;2022-10-18T16:06:40;17.60;97.20
25074;DHT22;13066;52.042;5.648;2022-10-18T16:09:11;17.40;97.40
25074;DHT22;13066;52.042;5.648;2022-10-18T16:11:42;17.40;97.60
25074;DHT22;13066;52.042;5.648;2022-10-18T16:14:12;17.30;97.70
25074;DHT22;13066;52.042;5.648;2022-10-18T16:16:40;17.20;97.90
25074;DHT22;13066;52.042;5.648;2022-10-18T16:19:09;17.20;98.10
25074;DHT22;13066;52.042;5.648;2022-10-18T16:21:41;17.10;98.20
25074;DHT22;13066;52.042;5.648;2022-10-18T16:24:09;17.10;98.40